CheckWX is a tool to help pilots better visualize weather data.  It is not intended as a substitute for an official pre-flight weather briefing.

14:48:21 UTC

5H4 METAR
Harvey Municipal Airport
Harvey, North Dakota, USA
Current

13 mins ago

K5H4 261435Z AUTO 00000KT 10SM CLR 06/M01 A3013 RMK AO2
Observed
Apr-26 @ 14:35 UTC
Visibility
10 SM
Flight Rules
VFR
Cloud Levels
  • Clear skies
Temperature
C / 43°F
Dewpoint
-1°C / 30°F
Humidity
61%
Altimeter
30.13" Hg
Pressure
1020.32 hPa
Previous

33 mins ago

K5H4 261415Z AUTO 00000KT 10SM CLR 05/M01 A3014 RMK AO2
Observed
Apr-26 @ 14:15 UTC
Visibility
10 SM
Flight Rules
VFR
Cloud Levels
  • Clear skies
Temperature
C / 41°F
Dewpoint
-1°C / 30°F
Humidity
66%
Altimeter
30.14" Hg
Pressure
1020.62 hPa
Previous

53 mins ago

K5H4 261355Z AUTO 00000KT 10SM CLR 04/M01 A3014 RMK AO2
Observed
Apr-26 @ 13:55 UTC
Visibility
10 SM
Flight Rules
VFR
Cloud Levels
  • Clear skies
Temperature
C / 39°F
Dewpoint
-1°C / 30°F
Humidity
70%
Altimeter
30.14" Hg
Pressure
1020.62 hPa